createdAt,value
2022-10-10T00:02:29.489Z,0.00
2022-10-10T00:05:00.110Z,0.00
2022-10-10T00:07:30.400Z,0.00
2022-10-10T00:10:00.501Z,5.00
2022-10-10T00:12:30.456Z,2.00
2022-10-10T00:15:00.565Z,0.00
2022-10-10T00:17:31.050Z,0.00
2022-10-10T00:20:01.476Z,0.00
2022-10-10T00:22:31.436Z,2.00
2022-10-10T00:25:01.477Z,0.00
2022-10-10T00:27:31.526Z,0.00
2022-10-10T00:30:01.752Z,1.50
2022-10-10T00:32:31.683Z,2.00
2022-10-10T00:35:01.825Z,0.00
2022-10-10T00:37:31.876Z,0.00
2022-10-10T00:40:01.895Z,2.00
2022-10-10T00:42:32.383Z,4.00
2022-10-10T00:45:29.216Z,0.00
2022-10-10T00:48:06.919Z,1.50
2022-10-10T00:50:44.866Z,3.00
2022-10-10T00:53:17.650Z,0.00
2022-10-10T00:55:49.175Z,0.00
2022-10-10T00:58:20.703Z,0.00
2022-10-10T01:00:51.266Z,8.00
2022-10-10T01:03:22.051Z,1.00
2022-10-10T01:05:53.042Z,0.00
2022-10-10T01:08:24.515Z,3.50
2022-10-10T01:11:42.049Z,16.33
2022-10-10T01:14:30.789Z,0.00
2022-10-10T01:17:32.010Z,0.67
2022-10-10T01:20:30.100Z,0.00
2022-10-10T01:23:18.434Z,2.00
2022-10-10T01:26:11.968Z,0.00
2022-10-10T01:29:07.389Z,2.00
2022-10-10T01:31:42.177Z,2.50
2022-10-10T01:34:21.637Z,1.00
2022-10-10T01:37:08.777Z,0.00
2022-10-10T01:39:41.898Z,0.67
2022-10-10T01:42:28.392Z,0.50
2022-10-10T01:44:58.808Z,2.00
2022-10-10T01:47:28.885Z,1.00
2022-10-10T01:50:03.174Z,1.00
2022-10-10T01:53:03.814Z,0.00
2022-10-10T01:56:02.199Z,1.00
2022-10-10T01:58:39.613Z,0.00
2022-10-10T02:01:17.295Z,0.00
2022-10-10T02:03:55.365Z,0.00
2022-10-10T02:06:36.778Z,0.00
2022-10-10T02:09:14.882Z,0.00
2022-10-10T02:11:46.727Z,0.00
2022-10-10T02:14:24.253Z,0.00
2022-10-10T02:16:59.363Z,0.00
2022-10-10T02:19:32.421Z,0.00
2022-10-10T02:22:03.638Z,0.00
2022-10-10T02:24:34.136Z,0.00
2022-10-10T02:27:12.960Z,1.50
2022-10-10T02:29:45.576Z,0.00
2022-10-10T02:32:38.129Z,0.00
2022-10-10T02:37:46.172Z,0.00
2022-10-10T02:40:22.584Z,2.67
2022-10-10T02:42:55.782Z,1.50
2022-10-10T02:45:26.927Z,17.25
2022-10-10T02:47:57.324Z,5.00
2022-10-10T02:50:28.227Z,14.50
2022-10-10T02:52:59.879Z,10.00
2022-10-10T02:55:30.161Z,2.00
2022-10-10T02:58:00.665Z,0.00
2022-10-10T03:00:31.203Z,8.00
2022-10-10T03:03:01.522Z,0.00
2022-10-10T03:05:31.634Z,8.00
2022-10-10T03:08:01.674Z,6.00
2022-10-10T03:10:31.621Z,13.00
2022-10-10T03:13:01.582Z,7.33
2022-10-10T03:18:01.008Z,2.00
2022-10-10T03:20:31.282Z,0.00
2022-10-10T03:23:01.403Z,9.00
2022-10-10T03:25:31.780Z,12.00
2022-10-10T03:28:01.752Z,2.50
2022-10-10T03:30:31.766Z,14.25
2022-10-10T03:33:01.747Z,8.00
2022-10-10T03:35:32.125Z,4.00
2022-10-10T03:38:03.069Z,13.33
2022-10-10T03:40:33.435Z,3.00
2022-10-10T03:43:03.501Z,4.00
2022-10-10T03:45:33.812Z,13.00
2022-10-10T03:48:03.891Z,0.00
2022-10-10T03:50:34.100Z,0.00
2022-10-10T03:53:04.334Z,0.00
2022-10-10T03:55:34.615Z,11.50
2022-10-10T03:58:04.641Z,3.50
2022-10-10T04:00:34.767Z,9.00
2022-10-10T04:03:07.807Z,0.00
2022-10-10T04:05:40.117Z,2.00
2022-10-10T04:08:17.682Z,2.00
2022-10-10T04:10:53.851Z,4.00
2022-10-10T04:13:26.821Z,0.00
2022-10-10T04:15:59.048Z,4.00
2022-10-10T04:20:59.571Z,6.00
2022-10-10T04:23:29.494Z,2.00
2022-10-10T04:25:59.406Z,5.50
2022-10-10T04:28:29.596Z,0.00
2022-10-10T04:30:59.639Z,6.00
2022-10-10T04:33:29.658Z,2.00
2022-10-10T04:36:00.095Z,0.00
2022-10-10T04:38:31.317Z,0.00
2022-10-10T04:43:30.700Z,0.00
2022-10-10T04:46:00.808Z,2.00
2022-10-10T04:48:30.838Z,0.00
2022-10-10T04:56:00.866Z,10.50
2022-10-10T04:58:32.536Z,0.50
2022-10-10T05:01:03.149Z,8.00
2022-10-10T05:03:33.319Z,2.00
2022-10-10T05:06:03.538Z,13.50
2022-10-10T05:08:33.428Z,2.00
2022-10-10T05:11:03.771Z,4.00
2022-10-10T05:13:33.770Z,5.00
2022-10-10T05:16:03.800Z,9.00
2022-10-10T05:18:33.800Z,2.00
2022-10-10T05:21:04.082Z,5.00
2022-10-10T05:23:34.838Z,0.00
2022-10-10T05:26:04.987Z,0.00
2022-10-10T05:28:37.790Z,0.00
2022-10-10T05:31:08.409Z,4.00
2022-10-10T05:33:38.606Z,2.00
2022-10-10T05:36:14.599Z,2.50
2022-10-10T05:38:44.712Z,2.00
2022-10-10T05:41:14.765Z,6.67
2022-10-10T05:43:44.902Z,12.67
2022-10-10T05:46:15.859Z,6.00
2022-10-10T05:48:46.001Z,0.00
2022-10-10T05:51:16.068Z,13.00
2022-10-10T05:53:46.151Z,2.00
2022-10-10T05:56:19.371Z,3.00
2022-10-10T05:58:50.296Z,2.00
2022-10-10T06:01:20.660Z,0.00
2022-10-10T06:03:53.998Z,0.00
2022-10-10T06:06:26.176Z,0.00
2022-10-10T06:08:57.377Z,2.00
2022-10-10T06:11:27.450Z,8.00
2022-10-10T06:13:58.342Z,0.00
2022-10-10T06:16:29.829Z,2.00
2022-10-10T06:19:00.123Z,7.50
2022-10-10T06:21:30.921Z,4.00
2022-10-10T06:24:02.242Z,7.50
2022-10-10T06:26:33.109Z,0.00
2022-10-10T06:29:03.278Z,0.00
2022-10-10T06:34:02.670Z,0.00
2022-10-10T06:36:32.783Z,0.00
2022-10-10T06:39:02.750Z,0.00
2022-10-10T06:44:02.068Z,5.33
2022-10-10T06:46:32.069Z,2.00
2022-10-10T06:49:02.321Z,2.00
2022-10-10T06:51:33.016Z,0.00
2022-10-10T06:54:04.109Z,0.00
2022-10-10T06:59:04.288Z,0.00
2022-10-10T07:01:34.456Z,3.00
2022-10-10T07:04:04.689Z,0.50
2022-10-10T07:06:35.187Z,0.00
2022-10-10T07:09:06.767Z,3.00
2022-10-10T07:11:37.060Z,9.50
2022-10-10T07:14:08.586Z,3.33
2022-10-10T07:16:39.135Z,4.00
2022-10-10T07:19:09.432Z,4.00
2022-10-10T07:21:39.314Z,8.00
2022-10-10T07:24:10.350Z,6.25
2022-10-10T07:26:41.933Z,2.50
2022-10-10T07:29:12.169Z,1.00
2022-10-10T07:31:42.082Z,0.00
2022-10-10T07:34:12.175Z,0.00
2022-10-10T07:36:42.507Z,1.00
2022-10-10T07:39:16.935Z,2.00
2022-10-10T07:41:47.276Z,0.00
2022-10-10T07:44:17.862Z,0.00
2022-10-10T07:46:47.975Z,0.00
2022-10-10T07:49:18.520Z,0.00
2022-10-10T07:54:17.919Z,0.00
2022-10-10T07:59:17.861Z,2.00
2022-10-10T08:01:48.500Z,4.00
2022-10-10T08:04:19.578Z,2.00
2022-10-10T08:06:50.283Z,1.50
2022-10-10T08:09:20.790Z,4.00
2022-10-10T08:11:50.733Z,0.67
2022-10-10T08:14:20.735Z,2.00
2022-10-10T08:16:51.821Z,1.00
2022-10-10T08:19:22.628Z,2.00
2022-10-10T08:21:52.892Z,1.50
2022-10-10T08:24:23.033Z,0.00
2022-10-10T08:26:53.152Z,5.00
2022-10-10T08:29:23.117Z,6.00
2022-10-10T08:31:53.192Z,3.33
2022-10-10T08:34:23.303Z,7.33
2022-10-10T08:36:53.214Z,6.00
2022-10-10T08:39:23.263Z,3.50
2022-10-10T08:42:02.481Z,10.00
2022-10-10T08:44:53.537Z,1.00
2022-10-10T08:47:28.901Z,0.00
2022-10-10T08:50:37.292Z,0.00
2022-10-10T08:53:33.351Z,3.00
2022-10-10T08:56:06.839Z,0.00
2022-10-10T08:58:47.126Z,3.50
2022-10-10T09:01:21.880Z,4.50
2022-10-10T09:03:55.358Z,0.00
2022-10-10T09:06:44.021Z,0.00
2022-10-10T09:09:19.890Z,0.00
2022-10-10T09:12:12.216Z,1.50
2022-10-10T09:15:05.323Z,0.00
2022-10-10T09:17:53.700Z,2.50
2022-10-10T09:20:42.490Z,0.00
2022-10-10T09:23:44.977Z,0.00
2022-10-10T09:26:17.782Z,1.50
2022-10-10T09:28:57.367Z,1.50
2022-10-10T09:34:22.719Z,7.00
2022-10-10T09:36:58.490Z,2.00
2022-10-10T09:39:45.870Z,15.75
2022-10-10T09:42:27.703Z,5.50
2022-10-10T09:44:57.720Z,10.50
2022-10-10T09:47:27.697Z,26.25
2022-10-10T09:49:58.087Z,14.00
2022-10-10T09:52:33.808Z,2.50
2022-10-10T09:55:16.719Z,14.67
2022-10-10T09:57:47.165Z,7.00
2022-10-10T10:00:25.052Z,4.00
2022-10-10T10:03:19.323Z,4.50
2022-10-10T10:08:33.494Z,13.75
2022-10-10T10:11:05.134Z,13.00
2022-10-10T10:13:39.705Z,20.00
2022-10-10T10:16:15.812Z,23.50
2022-10-10T10:18:48.950Z,8.00
2022-10-10T10:21:23.616Z,12.50
2022-10-10T10:24:00.761Z,30.00
2022-10-10T10:26:31.697Z,20.50
2022-10-10T10:29:01.731Z,12.67
2022-10-10T10:32:02.489Z,7.00
2022-10-10T10:34:39.537Z,25.00
2022-10-10T10:37:33.877Z,39.00
2022-10-10T10:40:25.795Z,33.75
2022-10-10T10:43:19.963Z,10.50
2022-10-10T10:46:16.049Z,6.00
2022-10-10T10:48:56.640Z,6.00
2022-10-10T10:51:45.468Z,6.00
2022-10-10T10:54:45.579Z,4.00
2022-10-10T10:57:51.226Z,7.50
2022-10-10T11:01:19.927Z,7.00
2022-10-10T11:05:20.077Z,8.00
2022-10-10T11:07:17.703Z,4.67
2022-10-10T11:09:56.089Z,23.33
2022-10-10T11:12:34.708Z,18.00
2022-10-10T11:16:01.500Z,4.00
2022-10-10T11:18:32.476Z,4.50
2022-10-10T11:21:25.459Z,5.50
2022-10-10T11:24:16.318Z,0.00
2022-10-10T11:26:56.356Z,5.00
2022-10-10T11:29:36.687Z,2.00
2022-10-10T11:35:08.946Z,4.00
2022-10-10T11:37:47.616Z,6.00
2022-10-10T11:40:59.296Z,4.50
2022-10-10T11:43:50.857Z,10.33
2022-10-10T11:46:34.022Z,4.50
2022-10-10T11:49:19.650Z,2.00
2022-10-10T11:52:15.033Z,9.50
2022-10-10T11:54:57.638Z,14.50
2022-10-10T11:57:52.444Z,6.50
2022-10-10T12:00:22.667Z,7.00
2022-10-10T12:02:59.469Z,3.00
2022-10-10T12:05:32.302Z,4.00
2022-10-10T12:08:30.481Z,6.00
2022-10-10T12:11:13.723Z,8.00
2022-10-10T12:13:51.136Z,3.50
2022-10-10T12:16:30.217Z,1.50
2022-10-10T12:19:25.280Z,0.00
2022-10-10T12:22:03.687Z,3.50
2022-10-10T12:24:42.332Z,2.00
2022-10-10T12:27:29.204Z,0.00
2022-10-10T12:29:59.916Z,0.50
2022-10-10T12:32:43.649Z,4.00
2022-10-10T12:35:40.378Z,0.00
2022-10-10T12:38:15.555Z,1.50
2022-10-10T12:41:12.348Z,0.00
2022-10-10T12:44:22.307Z,0.00
2022-10-10T12:47:16.862Z,0.00
2022-10-10T12:49:58.894Z,0.00
2022-10-10T12:52:37.496Z,1.33
2022-10-10T12:55:19.298Z,0.00
2022-10-10T12:57:52.322Z,0.00
2022-10-10T13:00:24.657Z,12.00
2022-10-10T13:03:06.548Z,4.00
2022-10-10T13:05:41.845Z,7.50
2022-10-10T13:08:22.413Z,0.50
2022-10-10T13:11:18.774Z,9.50
2022-10-10T13:13:54.481Z,0.00
2022-10-10T13:16:34.029Z,2.50
2022-10-10T13:19:04.388Z,4.50
2022-10-10T13:21:36.900Z,0.00
2022-10-10T13:24:15.839Z,0.00
2022-10-10T13:26:54.978Z,5.33
2022-10-10T13:29:37.780Z,42.33
2022-10-10T13:32:31.836Z,25.75
2022-10-10T13:35:09.269Z,5.00
2022-10-10T13:37:39.716Z,14.00
2022-10-10T13:40:17.019Z,2.00
2022-10-10T13:42:49.961Z,6.00
2022-10-10T13:45:34.514Z,21.00
2022-10-10T13:48:04.774Z,2.00
2022-10-10T13:53:32.044Z,2.00
2022-10-10T13:56:09.486Z,6.67
2022-10-10T13:58:51.240Z,13.00
2022-10-10T14:01:31.089Z,3.50
2022-10-10T14:04:23.429Z,4.00
2022-10-10T14:07:06.806Z,2.00
2022-10-10T14:09:57.319Z,2.00
2022-10-10T14:12:50.430Z,6.00
2022-10-10T14:15:45.516Z,8.00
2022-10-10T14:18:27.277Z,0.00
2022-10-10T14:20:57.827Z,4.00
2022-10-10T14:23:28.354Z,13.75
2022-10-10T14:26:00.411Z,11.33
2022-10-10T14:28:37.107Z,6.67
2022-10-10T14:31:08.009Z,4.00
2022-10-10T14:33:38.327Z,9.00
2022-10-10T14:36:09.067Z,3.00
2022-10-10T14:38:39.538Z,9.00
2022-10-10T14:41:14.015Z,17.00
2022-10-10T14:43:46.067Z,2.67
2022-10-10T14:46:22.952Z,2.00
2022-10-10T14:48:54.017Z,10.50
2022-10-10T14:51:33.232Z,10.00
2022-10-10T14:54:12.403Z,2.00
2022-10-10T14:57:09.306Z,0.00
2022-10-10T14:59:49.449Z,8.00
2022-10-10T15:02:23.331Z,3.50
2022-10-10T15:04:54.792Z,0.00
2022-10-10T15:07:26.575Z,4.00
2022-10-10T15:12:47.940Z,0.00
2022-10-10T15:15:19.586Z,3.00
2022-10-10T15:17:51.201Z,4.00
2022-10-10T15:20:25.535Z,6.00
2022-10-10T15:22:56.549Z,1.33
2022-10-10T15:25:32.385Z,7.50
2022-10-10T15:28:07.527Z,3.33
2022-10-10T15:30:42.773Z,2.00
2022-10-10T15:33:14.731Z,0.00
2022-10-10T15:36:07.851Z,0.00
2022-10-10T15:38:39.221Z,3.00
2022-10-10T15:41:12.391Z,12.50
2022-10-10T15:43:55.889Z,4.00
2022-10-10T15:46:28.629Z,0.00
2022-10-10T15:51:34.816Z,0.00
2022-10-10T15:54:05.401Z,0.00
2022-10-10T15:56:35.571Z,0.00
2022-10-10T15:59:07.614Z,4.00
2022-10-10T16:01:38.405Z,0.00
2022-10-10T16:04:08.819Z,10.00
2022-10-10T16:06:39.003Z,0.00
2022-10-10T16:09:27.298Z,5.50
2022-10-10T16:11:58.448Z,3.00
2022-10-10T16:14:30.033Z,5.00
2022-10-10T16:17:03.870Z,0.00
2022-10-10T16:19:34.260Z,2.00
2022-10-10T16:22:04.850Z,0.00
2022-10-10T16:24:34.863Z,0.00
2022-10-10T16:27:05.282Z,0.00
2022-10-10T16:29:35.757Z,4.50
2022-10-10T16:32:05.944Z,0.00
2022-10-10T16:34:36.603Z,8.50
2022-10-10T16:37:06.872Z,0.00
2022-10-10T16:39:37.054Z,8.00
2022-10-10T16:42:07.837Z,4.00
2022-10-10T16:44:37.957Z,9.50
2022-10-10T16:47:08.817Z,6.00
2022-10-10T16:49:40.050Z,6.00
2022-10-10T16:52:10.619Z,6.00
2022-10-10T16:54:40.570Z,2.00
2022-10-10T16:57:10.522Z,0.00
2022-10-10T16:59:41.590Z,9.00
2022-10-10T17:02:15.190Z,2.00
2022-10-10T17:04:45.717Z,0.50
2022-10-10T17:07:15.767Z,2.00
2022-10-10T17:09:46.667Z,0.00
2022-10-10T17:12:16.893Z,5.00
2022-10-10T17:14:47.109Z,0.00
2022-10-10T17:17:18.859Z,2.00
2022-10-10T17:19:50.490Z,0.00
2022-10-10T17:22:21.346Z,1.00
2022-10-10T17:24:51.486Z,0.00
2022-10-10T17:27:21.629Z,5.50
2022-10-10T17:29:54.992Z,2.00
2022-10-10T17:32:25.302Z,0.00
2022-10-10T17:34:56.857Z,0.00
2022-10-10T17:37:27.289Z,2.00
2022-10-10T17:39:58.102Z,2.00
2022-10-10T17:42:28.502Z,0.00
2022-10-10T17:45:00.691Z,0.00
2022-10-10T17:47:30.944Z,0.00
2022-10-10T17:50:01.405Z,3.33
2022-10-10T17:52:31.459Z,2.50
2022-10-10T17:55:01.324Z,0.00
2022-10-10T17:57:31.634Z,0.00
2022-10-10T18:00:01.602Z,2.00
2022-10-10T18:02:34.245Z,3.50
2022-10-10T18:05:04.772Z,3.00
2022-10-10T18:07:34.883Z,2.00
2022-10-10T18:10:05.336Z,5.00
2022-10-10T18:12:36.030Z,3.00
2022-10-10T18:17:35.989Z,2.00
2022-10-10T18:20:06.389Z,2.00
2022-10-10T18:22:36.441Z,0.00
2022-10-10T18:25:06.860Z,2.00
2022-10-10T18:27:36.912Z,2.00
2022-10-10T18:30:08.114Z,0.00
2022-10-10T18:32:38.461Z,4.00
2022-10-10T18:35:09.614Z,0.00
2022-10-10T18:37:40.081Z,9.50
2022-10-10T18:40:11.119Z,5.00
2022-10-10T18:42:42.596Z,8.00
2022-10-10T18:45:13.265Z,6.00
2022-10-10T18:47:43.629Z,2.00
2022-10-10T18:50:13.624Z,2.67
2022-10-10T18:52:44.083Z,0.67
2022-10-10T18:55:17.684Z,9.00
2022-10-10T18:57:48.072Z,2.00
2022-10-10T19:00:20.029Z,4.50
2022-10-10T19:02:50.227Z,0.50
2022-10-10T19:05:20.369Z,9.33
2022-10-10T19:07:50.492Z,0.00
2022-10-10T19:10:20.630Z,9.50
2022-10-10T19:12:51.831Z,4.00
2022-10-10T19:15:22.068Z,2.00
2022-10-10T19:17:52.531Z,0.00
2022-10-10T19:20:25.835Z,10.00
2022-10-10T19:22:59.536Z,5.00
2022-10-10T19:25:31.382Z,8.00
2022-10-10T19:28:01.708Z,15.25
2022-10-10T19:33:01.421Z,6.00
2022-10-10T19:35:31.517Z,8.50
2022-10-10T19:38:01.683Z,6.00
2022-10-10T19:40:31.753Z,10.00
2022-10-10T19:43:01.882Z,9.00
2022-10-10T19:45:31.780Z,12.00
2022-10-10T19:48:01.944Z,6.00
2022-10-10T19:50:32.231Z,14.00
2022-10-10T19:53:05.038Z,18.00
2022-10-10T19:58:05.019Z,8.00
2022-10-10T20:00:35.342Z,13.50
2022-10-10T20:03:05.528Z,16.50
2022-10-10T20:05:35.535Z,10.00
2022-10-10T20:08:05.656Z,10.00
2022-10-10T20:10:35.722Z,16.00
2022-10-10T20:13:05.636Z,2.00
2022-10-10T20:15:35.556Z,14.75
2022-10-10T20:18:05.769Z,8.00
2022-10-10T20:20:35.944Z,12.50
2022-10-10T20:23:07.685Z,8.67
2022-10-10T20:25:43.088Z,8.50
2022-10-10T20:28:15.529Z,6.00
2022-10-10T20:30:49.711Z,7.50
2022-10-10T20:33:23.596Z,6.00
2022-10-10T20:35:56.095Z,17.00
2022-10-10T20:38:27.162Z,5.33
2022-10-10T20:40:57.248Z,10.50
2022-10-10T20:45:56.653Z,8.50
2022-10-10T20:48:26.662Z,9.00
2022-10-10T20:50:56.659Z,19.00
2022-10-10T20:53:26.624Z,8.50
2022-10-10T20:55:56.867Z,21.50
2022-10-10T20:58:26.811Z,6.50
2022-10-10T21:01:18.708Z,20.25
2022-10-10T21:03:49.919Z,7.00
2022-10-10T21:06:25.042Z,2.00
2022-10-10T21:08:56.068Z,1.00
2022-10-10T21:11:26.343Z,1.00
2022-10-10T21:13:58.933Z,3.00
2022-10-10T21:16:32.574Z,0.67
2022-10-10T21:19:03.688Z,9.33
2022-10-10T21:21:36.307Z,1.00
2022-10-10T21:24:09.602Z,4.00
2022-10-10T21:26:42.748Z,2.00
2022-10-10T21:29:13.449Z,6.00
2022-10-10T21:31:44.237Z,4.00
2022-10-10T21:34:19.970Z,8.00
2022-10-10T21:36:50.375Z,19.75
2022-10-10T21:39:20.297Z,24.25
2022-10-10T21:41:50.234Z,14.25
2022-10-10T21:44:20.694Z,15.00
2022-10-10T21:46:52.496Z,10.50
2022-10-10T21:49:22.494Z,11.50
2022-10-10T21:51:52.525Z,10.00
2022-10-10T21:54:22.516Z,6.00
2022-10-10T21:56:52.582Z,6.00
2022-10-10T21:59:22.825Z,4.50
2022-10-10T22:01:52.795Z,16.00
2022-10-10T22:04:25.536Z,11.00
2022-10-10T22:06:58.804Z,14.67
2022-10-10T22:09:28.785Z,17.67
2022-10-10T22:11:59.314Z,13.50
2022-10-10T22:14:29.687Z,22.00
2022-10-10T22:16:59.816Z,8.00
2022-10-10T22:19:29.793Z,13.50
2022-10-10T22:21:59.802Z,24.25
2022-10-10T22:24:32.592Z,15.00
2022-10-10T22:27:03.089Z,19.25
2022-10-10T22:29:33.744Z,25.50
2022-10-10T22:32:04.054Z,22.25
2022-10-10T22:34:34.500Z,15.33
2022-10-10T22:37:04.640Z,19.00
2022-10-10T22:39:34.705Z,12.00
2022-10-10T22:42:04.711Z,19.00
2022-10-10T22:44:34.725Z,16.50
2022-10-10T22:47:04.727Z,14.25
2022-10-10T22:49:36.211Z,16.75
2022-10-10T22:52:11.465Z,17.75
2022-10-10T22:54:41.787Z,28.75
2022-10-10T22:57:13.286Z,26.25
2022-10-10T22:59:43.790Z,26.25
2022-10-10T23:02:13.881Z,17.00
2022-10-10T23:04:43.926Z,32.00
2022-10-10T23:07:16.888Z,24.67
2022-10-10T23:09:47.842Z,17.25
2022-10-10T23:12:18.266Z,29.50
2022-10-10T23:14:48.825Z,30.50
2022-10-10T23:17:19.024Z,28.33
2022-10-10T23:19:49.220Z,27.75
2022-10-10T23:22:19.379Z,23.00
2022-10-10T23:24:49.356Z,28.50
2022-10-10T23:27:19.340Z,15.00
2022-10-10T23:29:49.207Z,12.50
2022-10-10T23:32:19.447Z,4.00
2022-10-10T23:34:49.393Z,2.00
2022-10-10T23:37:19.493Z,13.33
2022-10-10T23:39:49.904Z,8.67
2022-10-10T23:42:19.978Z,15.00
2022-10-10T23:44:50.083Z,6.50
2022-10-10T23:47:20.066Z,3.00
2022-10-10T23:49:50.097Z,5.00
2022-10-10T23:52:20.004Z,5.50
2022-10-10T23:54:50.145Z,5.33
2022-10-10T23:57:20.069Z,13.75
2022-10-10T23:59:50.016Z,14.33
